Time;durP1;ratioP1;P1;durP2;ratioP2;P2;SDS_P1;SDS_P2;PMS_P1;PMS_P2;Temp;Humidity;BMP_temperature;BMP_pressure;BME280_temperature;BME280_humidity;BME280_pressure;Samples;Min_cycle;Max_cycle;Signal;HPM_P1;HPM_P2
2023/07/20 00:00:01;;;;;;;;;;;;;;;;;;4981444;28;19965;-73
2023/07/20 00:02:26;;;;;;;;;;;;;;;;;;4979803;28;19980;-72
2023/07/20 00:04:52;;;;;;;;;;;;;;;;;;4978190;28;19977;-72
2023/07/20 00:07:18;;;;;;;;;;;;;;;;;;4976965;28;20021;-72
2023/07/20 00:09:44;;;;;;;;;;;;;;;;;;4983764;28;20451;-71
2023/07/20 00:12:10;;;;;;;;;;;;;;;;;;4975581;28;19984;-72
2023/07/20 00:14:36;;;;;;;;;;;;;;;;;;4970071;28;20300;-73
2023/07/20 00:17:02;;;;;;;;;;;;;;;;;;4969762;28;19933;-73
2023/07/20 00:19:28;;;;;;;;;;;;;;;;;;4972414;28;19925;-73
2023/07/20 00:21:54;;;;;;;;;;;;;;;;;;4971936;28;19930;-72
2023/07/20 00:24:20;;;;;;;;;;;;;;;;;;4983122;28;19972;-73
2023/07/20 00:26:46;;;;;;;;;;;;;;;;;;4983143;28;19926;-73
2023/07/20 00:29:12;;;;;;;;;;;;;;;;;;4981317;28;19940;-74
2023/07/20 00:31:38;;;;;;;;;;;;;;;;;;4984188;28;19937;-73
2023/07/20 00:34:04;;;;;;;;;;;;;;;;;;4980224;28;19926;-73
2023/07/20 00:36:30;;;;;;;;;;;;;;;;;;4965700;28;20691;-73
2023/07/20 00:38:56;;;;;;;;;;;;;;;;;;4960488;28;19926;-72
2023/07/20 00:41:22;;;;;;;;;;;;;;;;;;4976783;28;19944;-72
2023/07/20 00:43:48;;;;;;;;;;;;;;;;;;4976746;28;19926;-72
2023/07/20 00:46:14;;;;;;;;;;;;;;;;;;4986438;28;19926;-72
2023/07/20 00:48:40;;;;;;;;;;;;;;;;;;4968477;28;19933;-73
2023/07/20 00:51:06;;;;;;;;;;;;;;;;;;4972780;28;20280;-73
2023/07/20 00:53:31;;;;;;;;;;;;;;;;;;4985001;28;20391;-65
2023/07/20 00:55:57;;;;;;;;;;;;;;;;;;4986579;28;19926;-72
2023/07/20 00:58:24;;;;;;;;;;;;;;;;;;4984899;28;20269;-72
2023/07/20 01:00:49;;;;;;;;;;;;;;;;;;4983828;28;20281;-72
2023/07/20 01:03:15;;;;;;;;;;;;;;;;;;4978721;28;20065;-72
2023/07/20 01:05:41;;;;;;;;;;;;;;;;;;4986770;28;20012;-72
2023/07/20 01:08:07;;;;;;;;;;;;;;;;;;4963346;28;20376;-72
2023/07/20 01:10:33;;;;;;;;;;;;;;;;;;4985884;28;19933;-71
2023/07/20 01:12:59;;;;;;;;;;;;;;;;;;5052152;23;19957;-59
2023/07/20 01:15:25;;;;;;;;;;;;;;;;;;4982950;28;19925;-58
2023/07/20 01:17:51;;;;;;;;;;;;;;;;;;4983570;28;19999;-58
2023/07/20 01:20:17;;;;;;;;;;;;;;;;;;4982938;28;19925;-57
2023/07/20 01:22:44;;;;;;;;;;;;;;;;;;4984752;28;19926;-57
2023/07/20 01:25:10;;;;;;;;;;;;;;;;;;4982101;28;19925;-58
2023/07/20 01:27:36;;;;;;;;;;;;;;;;;;4982220;28;19933;-58
2023/07/20 01:30:01;;;;;;;;;;;;;;;;;;4971978;28;20349;-58
2023/07/20 01:32:27;;;;;;;;;;;;;;;;;;4983190;28;19961;-57
2023/07/20 01:34:53;;;;;;;;;;;;;;;;;;4981816;28;19984;-58
2023/07/20 01:37:20;;;;;;;;;;;;;;;;;;4981550;28;19922;-57
2023/07/20 01:39:45;;;;;;;;;;;;;;;;;;4979729;28;19981;-58
2023/07/20 01:42:11;;;;;;;;;;;;;;;;;;4967016;28;19945;-58
2023/07/20 01:44:37;;;;;;;;;;;;;;;;;;4970479;28;19981;-58
2023/07/20 01:47:03;;;;;;;;;;;;;;;;;;4982192;28;19934;-58
2023/07/20 01:49:29;;;;;;;;;;;;;;;;;;4984327;28;19952;-57
2023/07/20 01:51:55;;;;;;;;;;;;;;;;;;4970020;28;20380;-57
2023/07/20 01:54:21;;;;;;;;;;;;;;;;;;4980556;28;20398;-57
2023/07/20 01:56:47;;;;;;;;;;;;;;;;;;4967248;28;20087;-57
2023/07/20 01:59:13;;;;;;;;;;;;;;;;;;4979071;28;19988;-56
2023/07/20 02:01:39;;;;;;;;;;;;;;;;;;4982676;28;19995;-57
2023/07/20 02:04:05;;;;;;;;;;;;;;;;;;4983854;28;19981;-57
2023/07/20 02:06:31;;;;;;;;;;;;;;;;;;4978816;28;19973;-57
2023/07/20 02:08:57;;;;;;;;;;;;;;;;;;4984062;28;19930;-57
2023/07/20 02:11:23;;;;;;;;;;;;;;;;;;4979142;28;19926;-57
2023/07/20 02:13:48;;;;;;;;;;;;;;;;;;4974199;28;20311;-57
2023/07/20 02:16:14;;;;;;;;;;;;;;;;;;4978798;28;19925;-57
2023/07/20 02:18:40;;;;;;;;;;;;;;;;;;4982874;28;19926;-57
2023/07/20 02:21:06;;;;;;;;;;;;;;;;;;4985323;28;19926;-57
2023/07/20 02:23:32;;;;;;;;;;;;;;;;;;4982028;28;20509;-57
2023/07/20 02:25:58;;;;;;;;;;;;;;;;;;4964647;28;19925;-57
2023/07/20 02:28:24;;;;;;;;;;;;;;;;;;4980042;28;20288;-57
2023/07/20 02:30:50;;;;;;;;;;;;;;;;;;4978879;28;20485;-57
2023/07/20 02:33:16;;;;;;;;;;;;;;;;;;4978469;28;19932;-57
2023/07/20 02:35:42;;;;;;;;;;;;;;;;;;4976175;28;19937;-57
2023/07/20 02:38:08;;;;;;;;;;;;;;;;;;4985273;28;19926;-57
2023/07/20 02:40:34;;;;;;;;;;;;;;;;;;4985468;28;19976;-57
2023/07/20 02:43:00;;;;;;;;;;;;;;;;;;4974856;28;19926;-57
2023/07/20 02:45:26;;;;;;;;;;;;;;;;;;4974083;28;19942;-57
2023/07/20 02:47:52;;;;;;;;;;;;;;;;;;4968261;28;20227;-57
2023/07/20 02:50:18;;;;;;;;;;;;;;;;;;4979457;28;20298;-57
2023/07/20 02:52:44;;;;;;;;;;;;;;;;;;4956326;28;19932;-57
2023/07/20 02:55:10;;;;;;;;;;;;;;;;;;4970716;28;20013;-57
2023/07/20 02:57:35;;;;;;;;;;;;;;;;;;4980615;28;20016;-57
2023/07/20 03:00:01;;;;;;;;;;;;;;;;;;4980939;28;19930;-58
2023/07/20 03:02:27;;;;;;;;;;;;;;;;;;4973251;28;20035;-57
2023/07/20 03:04:54;;;;;;;;;;;;;;;;;;4983521;28;20410;-57
2023/07/20 03:07:19;;;;;;;;;;;;;;;;;;4983775;28;19926;-57
2023/07/20 03:09:46;;;;;;;;;;;;;;;;;;4979513;28;20406;-57
2023/07/20 03:12:12;;;;;;;;;;;;;;;;;;4980906;28;20004;-57
2023/07/20 03:14:38;;;;;;;;;;;;;;;;;;4980665;28;20453;-57
2023/07/20 03:17:04;;;;;;;;;;;;;;;;;;4979636;28;19918;-58
2023/07/20 03:19:30;;;;;;;;;;;;;;;;;;4971357;28;19989;-57
2023/07/20 03:21:56;;;;;;;;;;;;;;;;;;4977081;28;20395;-57
2023/07/20 03:24:23;;;;;;;;;;;;;;;;;;4970702;28;20012;-57
2023/07/20 03:26:49;;;;;;;;;;;;;;;;;;4973646;28;19926;-58
2023/07/20 03:29:16;;;;;;;;;;;;;;;;;;4969596;28;20419;-57
2023/07/20 03:31:42;;;;;;;;;;;;;;;;;;4969338;28;20004;-57
2023/07/20 03:34:08;;;;;;;;;;;;;;;;;;4966299;28;20031;-58
2023/07/20 03:36:34;;;;;;;;;;;;;;;;;;4978701;28;19926;-58
2023/07/20 03:39:00;;;;;;;;;;;;;;;;;;4973882;28;19925;-57
2023/07/20 03:41:26;;;;;;;;;;;;;;;;;;4983317;28;20016;-57
2023/07/20 03:43:52;;;;;;;;;;;;;;;;;;4981940;28;20032;-57
2023/07/20 03:46:18;;;;;;;;;;;;;;;;;;4982169;28;20355;-57
2023/07/20 03:48:44;;;;;;;;;;;;;;;;;;4977773;28;19929;-58
2023/07/20 03:51:10;;;;;;;;;;;;;;;;;;4958443;28;19933;-57
2023/07/20 03:53:36;;;;;;;;;;;;;;;;;;4970147;28;20299;-58
2023/07/20 03:56:02;;;;;;;;;;;;;;;;;;4971441;28;20304;-58
2023/07/20 03:58:27;;;;;;;;;;;;;;;;;;4973361;28;19937;-57
2023/07/20 04:00:53;;;;;;;;;;;;;;;;;;4970588;28;19930;-58
2023/07/20 04:03:19;;;;;;;;;;;;;;;;;;4983570;28;20421;-58
2023/07/20 04:05:45;;;;;;;;;;;;;;;;;;4982588;28;19969;-60
2023/07/20 04:08:11;;;;;;;;;;;;;;;;;;4981468;28;20272;-58
2023/07/20 04:10:37;;;;;;;;;;;;;;;;;;4983546;28;19969;-57
2023/07/20 04:13:03;;;;;;;;;;;;;;;;;;4983372;28;19926;-60
2023/07/20 04:15:29;;;;;;;;;;;;;;;;;;4984535;28;19948;-58
2023/07/20 04:17:56;;;;;;;;;;;;;;;;;;4983605;28;19930;-59
2023/07/20 04:20:22;;;;;;;;;;;;;;;;;;4986293;28;20020;-57
2023/07/20 04:22:48;;;;;;;;;;;;;;;;;;4987994;28;20406;-58
2023/07/20 04:25:14;;;;;;;;;;;;;;;;;;4981008;28;19930;-58
2023/07/20 04:27:40;;;;;;;;;;;;;;;;;;4980729;28;19932;-58
2023/07/20 04:30:05;;;;;;;;;;;;;;;;;;4987298;28;19925;-59
2023/07/20 04:32:33;;;;;;;;;;;;;;;;;;4987994;28;20441;-60
2023/07/20 04:34:59;;;;;;;;;;;;;;;;;;4987468;28;19930;-58
2023/07/20 04:37:25;;;;;;;;;;;;;;;;;;4987837;28;20024;-58
2023/07/20 04:39:51;;;;;;;;;;;;;;;;;;4987909;28;20320;-58
2023/07/20 04:42:17;;;;;;;;;;;;;;;;;;4987136;28;20346;-59
2023/07/20 04:44:43;;;;;;;;;;;;;;;;;;4987440;28;20450;-57
2023/07/20 04:47:09;;;;;;;;;;;;;;;;;;4981077;28;19929;-57
2023/07/20 04:49:35;;;;;;;;;;;;;;;;;;4979724;28;19926;-58
2023/07/20 04:52:01;;;;;;;;;;;;;;;;;;4981063;28;19926;-58
2023/07/20 04:54:28;;;;;;;;;;;;;;;;;;4984962;28;19945;-57
2023/07/20 04:56:54;;;;;;;;;;;;;;;;;;4984042;28;19930;-57
2023/07/20 04:59:20;;;;;;;;;;;;;;;;;;4982010;28;20303;-57
2023/07/20 05:01:46;;;;;;;;;;;;;;;;;;4986492;28;19925;-58
2023/07/20 05:04:12;;;;;;;;;;;;;;;;;;4983094;28;19987;-58
2023/07/20 05:06:38;;;;;;;;;;;;;;;;;;4984288;28;19934;-58
2023/07/20 05:09:05;;;;;;;;;;;;;;;;;;4979691;28;19983;-58
2023/07/20 05:11:31;;;;;;;;;;;;;;;;;;4982135;28;20385;-57
2023/07/20 05:13:57;;;;;;;;;;;;;;;;;;4981640;28;19933;-57
2023/07/20 05:16:23;;;;;;;;;;;;;;;;;;4986078;28;19933;-57
2023/07/20 05:18:49;;;;;;;;;;;;;;;;;;4967602;28;19929;-58
2023/07/20 05:21:14;;;;;;;;;;;;;;;;;;4980612;28;19933;-58
2023/07/20 05:23:40;;;;;;;;;;;;;;;;;;4986635;28;20277;-58
2023/07/20 05:26:07;;;;;;;;;;;;;;;;;;4985020;28;19948;-58
2023/07/20 05:28:32;;;;;;;;;;;;;;;;;;4977970;28;20012;-58
2023/07/20 05:30:59;;;;;;;;;;;;;;;;;;4972116;28;20104;-58
2023/07/20 05:33:25;;;;;;;;;;;;;;;;;;4972798;28;19937;-58
2023/07/20 05:35:51;;;;;;;;;;;;;;;;;;4976723;28;19930;-57
2023/07/20 05:38:17;;;;;;;;;;;;;;;;;;4973882;28;20292;-58
2023/07/20 05:40:43;;;;;;;;;;;;;;;;;;4972109;28;20004;-60
2023/07/20 05:43:09;;;;;;;;;;;;;;;;;;4976138;28;19996;-56
2023/07/20 05:45:35;;;;;;;;;;;;;;;;;;4983658;28;20447;-56
2023/07/20 05:48:01;;;;;;;;;;;;;;;;;;4980566;28;19930;-56
2023/07/20 05:50:27;;;;;;;;;;;;;;;;;;4972702;28;19948;-56
2023/07/20 05:52:53;;;;;;;;;;;;;;;;;;4959243;28;19925;-56
2023/07/20 05:55:19;;;;;;;;;;;;;;;;;;4976889;28;20012;-58
2023/07/20 05:57:45;;;;;;;;;;;;;;;;;;4983804;28;20399;-56
2023/07/20 06:00:12;;;;;;;;;;;;;;;;;;4981374;28;20580;-56
2023/07/20 06:02:38;;;;;;;;;;;;;;;;;;4977180;28;20307;-57
2023/07/20 06:05:04;;;;;;;;;;;;;;;;;;4972303;28;19930;-58
2023/07/20 06:07:31;;;;;;;;;;;;;;;;;;4974550;28;19929;-58
2023/07/20 06:09:58;;;;;;;;;;;;;;;;;;4975808;28;19926;-58
2023/07/20 06:12:24;;;;;;;;;;;;;;;;;;4983412;28;19930;-59
2023/07/20 06:14:50;;;;;;;;;;;;;;;;;;4983870;28;19933;-58
2023/07/20 06:17:16;;;;;;;;;;;;;;;;;;4983678;28;19925;-58
2023/07/20 06:19:42;;;;;;;;;;;;;;;;;;4983838;28;19936;-58
2023/07/20 06:22:08;;;;;;;;;;;;;;;;;;4982341;28;20402;-59
2023/07/20 06:24:34;;;;;;;;;;;;;;;;;;4976554;28;19926;-58
2023/07/20 06:27:00;;;;;;;;;;;;;;;;;;4984362;28;19926;-58
2023/07/20 06:29:26;;;;;;;;;;;;;;;;;;4956770;28;19933;-58
2023/07/20 06:31:52;;;;;;;;;;;;;;;;;;4975172;28;19922;-58
2023/07/20 06:34:18;;;;;;;;;;;;;;;;;;4976882;28;19926;-58
2023/07/20 06:36:44;;;;;;;;;;;;;;;;;;4975428;28;20721;-58
2023/07/20 06:39:09;;;;;;;;;;;;;;;;;;4969581;28;19926;-58
2023/07/20 06:41:35;;;;;;;;;;;;;;;;;;4965850;28;20013;-60
2023/07/20 06:44:02;;;;;;;;;;;;;;;;;;4970985;28;20094;-58
2023/07/20 06:46:27;;;;;;;;;;;;;;;;;;4984161;28;19926;-58
2023/07/20 06:48:54;;;;;;;;;;;;;;;;;;4966496;28;19926;-58
2023/07/20 06:51:20;;;;;;;;;;;;;;;;;;4975610;28;19926;-58
2023/07/20 06:53:46;;;;;;;;;;;;;;;;;;4970582;28;20383;-58
2023/07/20 06:56:12;;;;;;;;;;;;;;;;;;4972843;28;19932;-58
2023/07/20 06:58:38;;;;;;;;;;;;;;;;;;4978780;28;19927;-61
2023/07/20 07:01:04;;;;;;;;;;;;;;;;;;4969220;28;19926;-59
2023/07/20 07:03:31;;;;;;;;;;;;;;;;;;4978382;28;20005;-58
2023/07/20 07:05:57;;;;;;;;;;;;;;;;;;4966813;28;19949;-58
2023/07/20 07:08:23;;;;;;;;;;;;;;;;;;4984650;28;20335;-59
2023/07/20 07:10:49;;;;;;;;;;;;;;;;;;4983457;28;20020;-58
2023/07/20 07:13:15;;;;;;;;;;;;;;;;;;4981306;28;20407;-58
2023/07/20 07:15:41;;;;;;;;;;;;;;;;;;4981664;28;20388;-59
2023/07/20 07:18:06;;;;;;;;;;;;;;;;;;4976702;28;20037;-59
2023/07/20 07:20:32;;;;;;;;;;;;;;;;;;4978562;28;20436;-58
2023/07/20 07:22:58;;;;;;;;;;;;;;;;;;4979557;28;19926;-58
2023/07/20 07:25:24;;;;;;;;;;;;;;;;;;4977249;28;20033;-58
2023/07/20 07:27:51;;;;;;;;;;;;;;;;;;4978870;28;19933;-58
2023/07/20 07:30:17;;;;;;;;;;;;;;;;;;4965494;28;20003;-59
2023/07/20 07:32:43;;;;;;;;;;;;;;;;;;4970125;28;20346;-58
2023/07/20 07:35:09;;;;;;;;;;;;;;;;;;4970221;28;19940;-58
2023/07/20 07:37:35;;;;;;;;;;;;;;;;;;4967946;28;20013;-58
2023/07/20 07:40:01;;;;;;;;;;;;;;;;;;4966796;28;20001;-58
2023/07/20 07:42:27;;;;;;;;;;;;;;;;;;4979099;28;19989;-58
2023/07/20 07:44:53;;;;;;;;;;;;;;;;;;4977119;28;19926;-59
2023/07/20 07:47:19;;;;;;;;;;;;;;;;;;4981024;28;19976;-59
2023/07/20 07:49:45;;;;;;;;;;;;;;;;;;4969827;28;20296;-58
2023/07/20 07:52:11;;;;;;;;;;;;;;;;;;4976709;28;20402;-58
2023/07/20 07:54:37;;;;;;;;;;;;;;;;;;4973273;28;19926;-59
2023/07/20 07:57:02;;;;;;;;;;;;;;;;;;4977536;28;19927;-59
2023/07/20 07:59:30;;;;;;;;;;;;;;;;;;4969307;28;19952;-58
2023/07/20 08:01:58;;;;;;;;;;;;;;;;;;4966180;28;19926;-58
2023/07/20 08:04:24;;;;;;;;;;;;;;;;;;4978404;28;19925;-59
2023/07/20 08:06:50;;;;;;;;;;;;;;;;;;4967316;28;20295;-58
2023/07/20 08:09:16;;;;;;;;;;;;;;;;;;4981714;28;20636;-59
2023/07/20 08:11:42;;;;;;;;;;;;;;;;;;4981126;28;19926;-59
2023/07/20 08:14:08;;;;;;;;;;;;;;;;;;4982402;28;19926;-59
2023/07/20 08:16:34;;;;;;;;;;;;;;;;;;4981952;28;19930;-59
2023/07/20 08:19:00;;;;;;;;;;;;;;;;;;4975393;28;20291;-59
2023/07/20 08:21:26;;;;;;;;;;;;;;;;;;4977641;28;19926;-58
2023/07/20 08:23:52;;;;;;;;;;;;;;;;;;4974976;28;20331;-58
2023/07/20 08:26:18;;;;;;;;;;;;;;;;;;4969552;28;20045;-59
2023/07/20 08:28:44;;;;;;;;;;;;;;;;;;4972270;28;19989;-58
2023/07/20 08:31:10;;;;;;;;;;;;;;;;;;4967463;28;19972;-59
2023/07/20 08:33:35;;;;;;;;;;;;;;;;;;4978671;28;19922;-59
2023/07/20 08:36:03;;;;;;;;;;;;;;;;;;4973967;28;20000;-59
2023/07/20 08:38:29;;;;;;;;;;;;;;;;;;4970595;28;19941;-59
2023/07/20 08:40:55;;;;;;;;;;;;;;;;;;4984222;28;19926;-59
2023/07/20 08:43:21;;;;;;;;;;;;;;;;;;4979717;28;20522;-57
2023/07/20 08:45:47;;;;;;;;;;;;;;;;;;4980390;28;19926;-59
2023/07/20 08:48:13;;;;;;;;;;;;;;;;;;4975568;28;19926;-59
2023/07/20 08:50:39;;;;;;;;;;;;;;;;;;4970434;28;19926;-59
2023/07/20 08:53:05;;;;;;;;;;;;;;;;;;4973014;28;19933;-59
2023/07/20 08:55:34;;;;;;;;;;;;;;;;;;4968189;28;19984;-58
2023/07/20 08:58:00;;;;;;;;;;;;;;;;;;4969987;28;19948;-56
2023/07/20 09:00:26;;;;;;;;;;;;;;;;;;4948616;28;20383;-56
2023/07/20 09:02:52;;;;;;;;;;;;;;;;;;4977666;28;19956;-55
2023/07/20 09:05:18;;;;;;;;;;;;;;;;;;4973203;28;19925;-56
2023/07/20 09:07:44;;;;;;;;;;;;;;;;;;4985195;28;20591;-56
2023/07/20 09:10:10;;;;;;;;;;;;;;;;;;4985425;28;19973;-56
2023/07/20 09:12:36;;;;;;;;;;;;;;;;;;4984415;28;20004;-56
2023/07/20 09:15:02;;;;;;;;;;;;;;;;;;4987338;28;19948;-56
2023/07/20 09:17:28;;;;;;;;;;;;;;;;;;4985399;28;20277;-56
2023/07/20 09:19:54;;;;;;;;;;;;;;;;;;4982328;28;20652;-56
2023/07/20 09:22:20;;;;;;;;;;;;;;;;;;4978920;28;19926;-56
2023/07/20 09:24:46;;;;;;;;;;;;;;;;;;4974924;28;19933;-55
2023/07/20 09:27:12;;;;;;;;;;;;;;;;;;4976386;28;19929;-56
2023/07/20 09:29:38;;;;;;;;;;;;;;;;;;4980583;28;20280;-57
2023/07/20 09:32:04;;;;;;;;;;;;;;;;;;4984312;28;19929;-57
2023/07/20 09:34:33;;;;;;;;;;;;;;;;;;4977127;28;19926;-56
2023/07/20 09:37:00;;;;;;;;;;;;;;;;;;4984456;28;19930;-56
2023/07/20 09:39:26;;;;;;;;;;;;;;;;;;4976907;28;19925;-56
2023/07/20 09:41:52;;;;;;;;;;;;;;;;;;4984363;28;19937;-56
2023/07/20 09:44:18;;;;;;;;;;;;;;;;;;4984536;28;19964;-56
2023/07/20 09:46:44;;;;;;;;;;;;;;;;;;4984368;28;19980;-56
2023/07/20 09:49:10;;;;;;;;;;;;;;;;;;4971540;28;19926;-56
2023/07/20 09:51:36;;;;;;;;;;;;;;;;;;4975896;28;19992;-56
2023/07/20 09:54:03;;;;;;;;;;;;;;;;;;4971574;28;19969;-59
2023/07/20 09:56:29;;;;;;;;;;;;;;;;;;4973165;28;19931;-59
2023/07/20 09:58:55;;;;;;;;;;;;;;;;;;4969403;28;19937;-56
2023/07/20 10:01:21;;;;;;;;;;;;;;;;;;4980980;28;19926;-56
2023/07/20 10:03:47;;;;;;;;;;;;;;;;;;4975371;28;19925;-57
2023/07/20 10:06:13;;;;;;;;;;;;;;;;;;4973256;28;19960;-57
2023/07/20 10:08:39;;;;;;;;;;;;;;;;;;4985221;28;20540;-57
2023/07/20 10:11:05;;;;;;;;;;;;;;;;;;4981308;28;19926;-58
2023/07/20 10:13:32;;;;;;;;;;;;;;;;;;4983040;28;20024;-57
2023/07/20 10:15:58;;;;;;;;;;;;;;;;;;4961988;28;20484;-57
2023/07/20 10:18:23;;;;;;;;;;;;;;;;;;4982180;28;19933;-57
2023/07/20 10:20:49;;;;;;;;;;;;;;;;;;4979867;28;19926;-57
2023/07/20 10:23:15;;;;;;;;;;;;;;;;;;4986200;28;19925;-58
2023/07/20 10:25:42;;;;;;;;;;;;;;;;;;4974610;28;19930;-56
2023/07/20 10:28:08;;;;;;;;;;;;;;;;;;4971763;28;19930;-57
2023/07/20 10:30:34;;;;;;;;;;;;;;;;;;4982075;28;19926;-56
2023/07/20 10:33:02;;;;;;;;;;;;;;;;;;4978237;28;19936;-58
2023/07/20 10:35:28;;;;;;;;;;;;;;;;;;4970527;28;19926;-57
2023/07/20 10:37:54;;;;;;;;;;;;;;;;;;4966693;28;19933;-57
2023/07/20 10:40:20;;;;;;;;;;;;;;;;;;4964431;28;19926;-58
2023/07/20 10:42:46;;;;;;;;;;;;;;;;;;4983795;28;19926;-57
2023/07/20 10:45:12;;;;;;;;;;;;;;;;;;4981448;28;19930;-57
2023/07/20 10:47:38;;;;;;;;;;;;;;;;;;4979409;28;19929;-58
2023/07/20 10:50:05;;;;;;;;;;;;;;;;;;4960721;28;19973;-57
2023/07/20 10:52:32;;;;;;;;;;;;;;;;;;4973861;28;19937;-57
2023/07/20 10:54:58;;;;;;;;;;;;;;;;;;4969128;28;20549;-57
2023/07/20 10:57:24;;;;;;;;;;;;;;;;;;4965865;28;19926;-57
2023/07/20 10:59:50;;;;;;;;;;;;;;;;;;4982872;28;19937;-57
2023/07/20 11:02:16;;;;;;;;;;;;;;;;;;4983275;28;20336;-58
2023/07/20 11:04:42;;;;;;;;;;;;;;;;;;4984754;28;20478;-57
2023/07/20 11:07:08;;;;;;;;;;;;;;;;;;4975956;28;19985;-57
2023/07/20 11:09:34;;;;;;;;;;;;;;;;;;4980166;28;19933;-57
2023/07/20 11:12:00;;;;;;;;;;;;;;;;;;4973599;28;19926;-57
2023/07/20 11:14:26;;;;;;;;;;;;;;;;;;4977294;28;19997;-57
2023/07/20 11:16:52;;;;;;;;;;;;;;;;;;4974445;28;19926;-58
2023/07/20 11:19:18;;;;;;;;;;;;;;;;;;4984177;28;19932;-58
2023/07/20 11:21:44;;;;;;;;;;;;;;;;;;4983201;28;19926;-57
2023/07/20 11:24:10;;;;;;;;;;;;;;;;;;4968026;28;20291;-58
2023/07/20 11:26:36;;;;;;;;;;;;;;;;;;4984149;28;20540;-58
2023/07/20 11:29:02;;;;;;;;;;;;;;;;;;4984316;28;20455;-58
2023/07/20 11:31:28;;;;;;;;;;;;;;;;;;4979065;28;20016;-58
2023/07/20 11:33:53;;;;;;;;;;;;;;;;;;4978004;28;20005;-58
2023/07/20 11:36:19;;;;;;;;;;;;;;;;;;4971835;28;19932;-57
2023/07/20 11:38:45;;;;;;;;;;;;;;;;;;4982474;28;20122;-58
2023/07/20 11:41:11;;;;;;;;;;;;;;;;;;4957417;28;19952;-58
2023/07/20 11:43:37;;;;;;;;;;;;;;;;;;4969701;28;20494;-58
2023/07/20 11:46:04;;;;;;;;;;;;;;;;;;4984003;28;19932;-58
2023/07/20 11:48:29;;;;;;;;;;;;;;;;;;4969168;28;19953;-58
2023/07/20 11:50:55;;;;;;;;;;;;;;;;;;4971883;28;19930;-58
2023/07/20 11:53:21;;;;;;;;;;;;;;;;;;4984205;28;19933;-58
2023/07/20 11:55:47;;;;;;;;;;;;;;;;;;4974096;28;20350;-58
2023/07/20 11:58:16;;;;;;;;;;;;;;;;;;4979542;28;19931;-58
2023/07/20 12:00:42;;;;;;;;;;;;;;;;;;4976241;28;20362;-58
2023/07/20 12:03:09;;;;;;;;;;;;;;;;;;4987992;28;19926;-58
2023/07/20 12:05:35;;;;;;;;;;;;;;;;;;4982873;28;19929;-58
2023/07/20 12:08:01;;;;;;;;;;;;;;;;;;4980272;28;19934;-58
2023/07/20 12:10:28;;;;;;;;;;;;;;;;;;4981073;28;19925;-58
2023/07/20 12:12:54;;;;;;;;;;;;;;;;;;4978224;28;20508;-57
2023/07/20 12:15:19;;;;;;;;;;;;;;;;;;4983163;28;20431;-57
2023/07/20 12:17:45;;;;;;;;;;;;;;;;;;4974009;28;19922;-58
2023/07/20 12:20:11;;;;;;;;;;;;;;;;;;4976792;28;20044;-58
2023/07/20 12:22:37;;;;;;;;;;;;;;;;;;4972421;28;20310;-58
2023/07/20 12:25:03;;;;;;;;;;;;;;;;;;4972485;28;19926;-58
2023/07/20 12:27:29;;;;;;;;;;;;;;;;;;4956254;28;19930;-58
2023/07/20 12:29:57;;;;;;;;;;;;;;;;;;4983566;28;19952;-57
2023/07/20 12:32:23;;;;;;;;;;;;;;;;;;4972399;28;19984;-58
2023/07/20 12:34:49;;;;;;;;;;;;;;;;;;4978928;28;19969;-59
2023/07/20 12:37:15;;;;;;;;;;;;;;;;;;4980341;28;19934;-58
2023/07/20 12:39:44;;;;;;;;;;;;;;;;;;4983577;28;20300;-58
2023/07/20 12:42:10;;;;;;;;;;;;;;;;;;4985894;28;19930;-58
2023/07/20 12:44:36;;;;;;;;;;;;;;;;;;4987135;28;20406;-59
2023/07/20 12:47:01;;;;;;;;;;;;;;;;;;4986050;28;19934;-59
2023/07/20 12:49:27;;;;;;;;;;;;;;;;;;4974436;28;19927;-60
2023/07/20 12:51:53;;;;;;;;;;;;;;;;;;4984226;28;19926;-59
2023/07/20 12:54:19;;;;;;;;;;;;;;;;;;4979617;28;19926;-59
2023/07/20 12:56:45;;;;;;;;;;;;;;;;;;4984399;28;19938;-58
2023/07/20 12:59:11;;;;;;;;;;;;;;;;;;4986340;28;19934;-59
2023/07/20 13:01:38;;;;;;;;;;;;;;;;;;4984074;28;19925;-59
2023/07/20 13:04:04;;;;;;;;;;;;;;;;;;4974296;28;20442;-58
2023/07/20 13:06:29;;;;;;;;;;;;;;;;;;4980735;28;19925;-58
2023/07/20 13:08:58;;;;;;;;;;;;;;;;;;4984594;28;20170;-59
2023/07/20 13:11:24;;;;;;;;;;;;;;;;;;4984515;28;20008;-59
2023/07/20 13:13:50;;;;;;;;;;;;;;;;;;4987577;28;19973;-59
2023/07/20 13:16:16;;;;;;;;;;;;;;;;;;4980871;28;19927;-59
2023/07/20 13:18:42;;;;;;;;;;;;;;;;;;4978731;28;19972;-59
2023/07/20 13:21:10;;;;;;;;;;;;;;;;;;4980881;28;19965;-58
2023/07/20 13:23:36;;;;;;;;;;;;;;;;;;4986228;28;19925;-58
2023/07/20 13:26:03;;;;;;;;;;;;;;;;;;4979421;28;20414;-58
2023/07/20 13:28:29;;;;;;;;;;;;;;;;;;4974131;28;19969;-58
2023/07/20 13:30:54;;;;;;;;;;;;;;;;;;4976562;28;19973;-58
2023/07/20 13:33:20;;;;;;;;;;;;;;;;;;4986043;28;19992;-58
2023/07/20 13:35:46;;;;;;;;;;;;;;;;;;4978211;28;20024;-58
2023/07/20 13:38:12;;;;;;;;;;;;;;;;;;4981547;28;19922;-58
2023/07/20 13:40:38;;;;;;;;;;;;;;;;;;4984998;28;19948;-58
2023/07/20 13:43:04;;;;;;;;;;;;;;;;;;4976878;28;19930;-58
2023/07/20 13:45:30;;;;;;;;;;;;;;;;;;4980033;28;19930;-58
2023/07/20 13:47:56;;;;;;;;;;;;;;;;;;4967024;28;19930;-58
2023/07/20 13:50:22;;;;;;;;;;;;;;;;;;4972722;28;19937;-57
2023/07/20 13:52:48;;;;;;;;;;;;;;;;;;4982736;28;19973;-57
2023/07/20 13:55:14;;;;;;;;;;;;;;;;;;4962847;28;19926;-58
2023/07/20 13:57:40;;;;;;;;;;;;;;;;;;4972911;28;19996;-58
2023/07/20 14:00:08;;;;;;;;;;;;;;;;;;4970407;28;20384;-58
2023/07/20 14:02:34;;;;;;;;;;;;;;;;;;4970781;28;19977;-58
2023/07/20 14:05:00;;;;;;;;;;;;;;;;;;4974884;28;19972;-58
2023/07/20 14:07:26;;;;;;;;;;;;;;;;;;4976264;28;20018;-59
2023/07/20 14:09:52;;;;;;;;;;;;;;;;;;4982542;28;20052;-58
2023/07/20 14:12:17;;;;;;;;;;;;;;;;;;4975121;28;19973;-59
2023/07/20 14:14:43;;;;;;;;;;;;;;;;;;4973372;28;19926;-58
2023/07/20 14:17:09;;;;;;;;;;;;;;;;;;4984193;28;19926;-59
2023/07/20 14:19:35;;;;;;;;;;;;;;;;;;4981167;28;19930;-58
2023/07/20 14:22:03;;;;;;;;;;;;;;;;;;4980283;28;20083;-58
2023/07/20 14:24:29;;;;;;;;;;;;;;;;;;4975393;28;20013;-58
2023/07/20 14:26:55;;;;;;;;;;;;;;;;;;4983292;28;19922;-58
2023/07/20 14:29:21;;;;;;;;;;;;;;;;;;4977333;28;20207;-58
2023/07/20 14:31:52;;;;;;;;;;;;;;;;;;4976181;28;19926;-58
2023/07/20 14:34:18;;;;;;;;;;;;;;;;;;4970420;28;19968;-56
2023/07/20 14:36:44;;;;;;;;;;;;;;;;;;4969390;28;19974;-58
2023/07/20 14:39:10;;;;;;;;;;;;;;;;;;4979595;28;19968;-58
2023/07/20 14:41:37;;;;;;;;;;;;;;;;;;4977790;28;19926;-58
2023/07/20 14:44:03;;;;;;;;;;;;;;;;;;4971109;28;20030;-58
2023/07/20 14:46:29;;;;;;;;;;;;;;;;;;4984270;28;20118;-58
2023/07/20 14:48:55;;;;;;;;;;;;;;;;;;4968965;28;19933;-58
2023/07/20 14:51:21;;;;;;;;;;;;;;;;;;4974722;28;19930;-58
2023/07/20 14:53:47;;;;;;;;;;;;;;;;;;4969908;28;20045;-58
2023/07/20 14:56:12;;;;;;;;;;;;;;;;;;4982378;28;20568;-58
2023/07/20 14:58:38;;;;;;;;;;;;;;;;;;4968152;28;19933;-58
2023/07/20 15:01:05;;;;;;;;;;;;;;;;;;4968218;28;20259;-58
2023/07/20 15:03:31;;;;;;;;;;;;;;;;;;4972175;28;19926;-57
2023/07/20 15:05:57;;;;;;;;;;;;;;;;;;4984271;28;19930;-57
2023/07/20 15:08:23;;;;;;;;;;;;;;;;;;4983480;28;20443;-58
2023/07/20 15:10:49;;;;;;;;;;;;;;;;;;4981431;28;19953;-58
2023/07/20 15:13:15;;;;;;;;;;;;;;;;;;4979146;28;19925;-58
2023/07/20 15:15:43;;;;;;;;;;;;;;;;;;4980594;28;19937;-58
2023/07/20 15:18:09;;;;;;;;;;;;;;;;;;4960230;28;19977;-58
2023/07/20 15:20:35;;;;;;;;;;;;;;;;;;4978312;28;20017;-58
2023/07/20 15:23:00;;;;;;;;;;;;;;;;;;4978300;28;20423;-58
2023/07/20 15:25:26;;;;;;;;;;;;;;;;;;4983792;28;20415;-57
2023/07/20 15:27:52;;;;;;;;;;;;;;;;;;4970694;28;19988;-57
2023/07/20 15:30:18;;;;;;;;;;;;;;;;;;4955085;28;19926;-58
2023/07/20 15:32:44;;;;;;;;;;;;;;;;;;4966124;28;19969;-58
2023/07/20 15:35:10;;;;;;;;;;;;;;;;;;4969696;28;19965;-57
2023/07/20 15:37:37;;;;;;;;;;;;;;;;;;4977348;28;19965;-58
2023/07/20 15:40:04;;;;;;;;;;;;;;;;;;4977981;28;19930;-60
2023/07/20 15:42:30;;;;;;;;;;;;;;;;;;4982532;28;19937;-58
2023/07/20 15:44:58;;;;;;;;;;;;;;;;;;4979774;28;20287;-57
2023/07/20 15:47:24;;;;;;;;;;;;;;;;;;4977511;28;20033;-58
2023/07/20 15:49:50;;;;;;;;;;;;;;;;;;4977322;28;20013;-58
2023/07/20 15:52:17;;;;;;;;;;;;;;;;;;4969530;28;20339;-57
2023/07/20 15:54:43;;;;;;;;;;;;;;;;;;4981936;28;20020;-58
2023/07/20 15:57:09;;;;;;;;;;;;;;;;;;4967772;28;20009;-57
2023/07/20 15:59:35;;;;;;;;;;;;;;;;;;4967788;28;19926;-58
2023/07/20 16:02:01;;;;;;;;;;;;;;;;;;4964619;28;19948;-57
2023/07/20 16:04:27;;;;;;;;;;;;;;;;;;4977798;28;19934;-57
2023/07/20 16:06:53;;;;;;;;;;;;;;;;;;4983579;28;19930;-58
2023/07/20 16:09:20;;;;;;;;;;;;;;;;;;4981998;28;19926;-58
2023/07/20 16:11:46;;;;;;;;;;;;;;;;;;4981233;28;19930;-58
2023/07/20 16:14:12;;;;;;;;;;;;;;;;;;4978356;28;19953;-58
2023/07/20 16:16:38;;;;;;;;;;;;;;;;;;4978527;28;19984;-58
2023/07/20 16:19:04;;;;;;;;;;;;;;;;;;4977561;28;19933;-58
2023/07/20 16:21:31;;;;;;;;;;;;;;;;;;4980229;28;19929;-58
2023/07/20 16:23:57;;;;;;;;;;;;;;;;;;4983153;28;19969;-58
2023/07/20 16:26:23;;;;;;;;;;;;;;;;;;4978950;28;19980;-59
2023/07/20 16:28:49;;;;;;;;;;;;;;;;;;4962857;28;19929;-58
2023/07/20 16:31:15;;;;;;;;;;;;;;;;;;4980076;28;19934;-58
2023/07/20 16:33:41;;;;;;;;;;;;;;;;;;4982298;28;19965;-59
2023/07/20 16:36:07;;;;;;;;;;;;;;;;;;4973315;28;19933;-59